Time;durP1;ratioP1;P1;durP2;ratioP2;P2;SDS_P1;SDS_P2;PMS_P1;PMS_P2;Temp;Humidity;BMP_temperature;BMP_pressure;BME280_temperature;BME280_humidity;BME280_pressure;Samples;Min_cycle;Max_cycle;Signal;HPM_P1;HPM_P2
2021/07/05 00:01:39;;;;;;;0.8;0.8;;;;;;;;;;;;;
2021/07/05 00:04:04;;;;;;;1.6;1;;;;;;;;;;;;;
2021/07/05 00:06:30;;;;;;;0.9;0.8;;;;;;;;;;;;;
2021/07/05 00:08:55;;;;;;;3.2;1;;;;;;;;;;;;;
2021/07/05 00:11:20;;;;;;;1.4;0.9;;;;;;;;;;;;;
2021/07/05 00:13:45;;;;;;;2.4;1.1;;;;;;;;;;;;;
2021/07/05 00:16:10;;;;;;;1.5;0.9;;;;;;;;;;;;;
2021/07/05 00:18:37;;;;;;;2.4;0.7;;;;;;;;;;;;;
2021/07/05 00:21:02;;;;;;;1.7;0.8;;;;;;;;;;;;;
2021/07/05 00:23:28;;;;;;;1.1;0.8;;;;;;;;;;;;;
2021/07/05 00:25:53;;;;;;;2;0.7;;;;;;;;;;;;;
2021/07/05 00:28:19;;;;;;;1.6;0.8;;;;;;;;;;;;;
2021/07/05 00:30:44;;;;;;;0.9;0.7;;;;;;;;;;;;;
2021/07/05 00:33:10;;;;;;;3.2;0.8;;;;;;;;;;;;;
2021/07/05 00:35:36;;;;;;;1.7;0.8;;;;;;;;;;;;;
2021/07/05 00:38:01;;;;;;;1.2;0.9;;;;;;;;;;;;;
2021/07/05 00:40:26;;;;;;;1.2;0.9;;;;;;;;;;;;;
2021/07/05 00:42:52;;;;;;;2.3;1.2;;;;;;;;;;;;;
2021/07/05 00:45:17;;;;;;;2.9;1.4;;;;;;;;;;;;;
2021/07/05 00:47:42;;;;;;;3.1;1.4;;;;;;;;;;;;;
2021/07/05 00:50:07;;;;;;;2.6;1.4;;;;;;;;;;;;;
2021/07/05 00:52:32;;;;;;;4;1.2;;;;;;;;;;;;;
2021/07/05 00:54:57;;;;;;;2.5;1.1;;;;;;;;;;;;;
2021/07/05 00:57:24;;;;;;;2.8;1.3;;;;;;;;;;;;;
2021/07/05 00:59:48;;;;;;;2.4;1.1;;;;;;;;;;;;;
2021/07/05 01:02:13;;;;;;;1;0.8;;;;;;;;;;;;;
2021/07/05 01:04:39;;;;;;;2.3;1;;;;;;;;;;;;;
2021/07/05 01:07:04;;;;;;;4.7;1.2;;;;;;;;;;;;;
2021/07/05 01:09:30;;;;;;;1.8;1.3;;;;;;;;;;;;;
2021/07/05 01:11:55;;;;;;;2.7;1.5;;;;;;;;;;;;;
2021/07/05 01:14:20;;;;;;;3.4;1.3;;;;;;;;;;;;;
2021/07/05 01:16:45;;;;;;;2.6;1.2;;;;;;;;;;;;;
2021/07/05 01:19:11;;;;;;;3.2;1.2;;;;;;;;;;;;;
2021/07/05 01:21:36;;;;;;;1.8;1.3;;;;;;;;;;;;;
2021/07/05 01:24:01;;;;;;;1.4;0.9;;;;;;;;;;;;;
2021/07/05 01:26:27;;;;;;;2;1.1;;;;;;;;;;;;;
2021/07/05 01:28:53;;;;;;;2.2;0.8;;;;;;;;;;;;;
2021/07/05 01:31:18;;;;;;;1.7;1;;;;;;;;;;;;;
2021/07/05 01:33:44;;;;;;;2.3;1.2;;;;;;;;;;;;;
2021/07/05 01:36:11;;;;;;;1.6;1;;;;;;;;;;;;;
2021/07/05 01:38:35;;;;;;;3.1;0.9;;;;;;;;;;;;;
2021/07/05 01:41:02;;;;;;;1.4;1.1;;;;;;;;;;;;;
2021/07/05 01:43:28;;;;;;;1.5;1.1;;;;;;;;;;;;;
2021/07/05 01:45:52;;;;;;;2.2;1.3;;;;;;;;;;;;;
2021/07/05 01:48:17;;;;;;;1.3;1;;;;;;;;;;;;;
2021/07/05 01:50:42;;;;;;;2;1;;;;;;;;;;;;;
2021/07/05 01:53:07;;;;;;;2.6;1.2;;;;;;;;;;;;;
2021/07/05 01:55:33;;;;;;;1.8;1;;;;;;;;;;;;;
2021/07/05 01:57:58;;;;;;;3.1;1.2;;;;;;;;;;;;;
2021/07/05 02:00:23;;;;;;;2;1.2;;;;;;;;;;;;;
2021/07/05 02:02:48;;;;;;;2.1;1.3;;;;;;;;;;;;;
2021/07/05 02:05:13;;;;;;;1.7;1.2;;;;;;;;;;;;;
2021/07/05 02:07:39;;;;;;;2.7;1.4;;;;;;;;;;;;;
2021/07/05 02:10:04;;;;;;;3.6;1.4;;;;;;;;;;;;;
2021/07/05 02:12:29;;;;;;;2.1;1.5;;;;;;;;;;;;;
2021/07/05 02:14:54;;;;;;;3.8;1.4;;;;;;;;;;;;;
2021/07/05 02:17:19;;;;;;;3;1.4;;;;;;;;;;;;;
2021/07/05 02:19:45;;;;;;;3.2;1.3;;;;;;;;;;;;;
2021/07/05 02:22:10;;;;;;;1.9;1.1;;;;;;;;;;;;;
2021/07/05 02:24:35;;;;;;;3;1.1;;;;;;;;;;;;;
2021/07/05 02:27:01;;;;;;;1.2;1.1;;;;;;;;;;;;;
2021/07/05 02:29:42;;;;;;;1;1;;;;;;;;;;;;;
2021/07/05 02:32:07;;;;;;;1.5;1.1;;;;;;;;;;;;;
2021/07/05 02:34:32;;;;;;;1.6;0.9;;;;;;;;;;;;;
2021/07/05 02:36:57;;;;;;;3.1;1.1;;;;;;;;;;;;;
2021/07/05 02:39:22;;;;;;;1;0.9;;;;;;;;;;;;;
2021/07/05 02:41:47;;;;;;;3.5;1;;;;;;;;;;;;;
2021/07/05 02:44:12;;;;;;;2.5;1.2;;;;;;;;;;;;;
2021/07/05 02:46:38;;;;;;;2.9;0.9;;;;;;;;;;;;;
2021/07/05 02:49:03;;;;;;;1;0.9;;;;;;;;;;;;;
2021/07/05 02:51:29;;;;;;;2.2;1.1;;;;;;;;;;;;;
2021/07/05 02:53:54;;;;;;;1.5;0.8;;;;;;;;;;;;;
2021/07/05 02:56:19;;;;;;;1.6;1;;;;;;;;;;;;;
2021/07/05 02:58:44;;;;;;;1.2;0.9;;;;;;;;;;;;;
2021/07/05 03:01:10;;;;;;;1.5;0.7;;;;;;;;;;;;;
2021/07/05 03:03:35;;;;;;;0.8;0.8;;;;;;;;;;;;;
2021/07/05 03:06:00;;;;;;;1.6;1;;;;;;;;;;;;;
2021/07/05 03:08:26;;;;;;;3.3;1;;;;;;;;;;;;;
2021/07/05 03:10:52;;;;;;;1.1;0.9;;;;;;;;;;;;;
2021/07/05 03:13:17;;;;;;;2.2;1.2;;;;;;;;;;;;;
2021/07/05 03:15:43;;;;;;;1.1;1;;;;;;;;;;;;;
2021/07/05 03:18:08;;;;;;;1.6;1;;;;;;;;;;;;;
2021/07/05 03:20:33;;;;;;;1.1;0.9;;;;;;;;;;;;;
2021/07/05 03:22:58;;;;;;;1.8;1.2;;;;;;;;;;;;;
2021/07/05 03:25:23;;;;;;;2.5;1;;;;;;;;;;;;;
2021/07/05 03:27:49;;;;;;;1.8;1.2;;;;;;;;;;;;;
2021/07/05 03:30:14;;;;;;;1.5;1;;;;;;;;;;;;;
2021/07/05 03:32:39;;;;;;;1.7;0.9;;;;;;;;;;;;;
2021/07/05 03:35:04;;;;;;;3.9;1.2;;;;;;;;;;;;;
2021/07/05 03:37:29;;;;;;;1.2;1;;;;;;;;;;;;;
2021/07/05 03:39:54;;;;;;;3.6;1.1;;;;;;;;;;;;;
2021/07/05 03:42:19;;;;;;;1.7;1;;;;;;;;;;;;;
2021/07/05 03:44:44;;;;;;;1.2;1.1;;;;;;;;;;;;;
2021/07/05 03:47:09;;;;;;;6.5;1.9;;;;;;;;;;;;;
2021/07/05 03:49:35;;;;;;;5.8;4;;;;;;;;;;;;;
2021/07/05 03:52:00;;;;;;;5.7;3.6;;;;;;;;;;;;;
2021/07/05 03:54:25;;;;;;;3;1.8;;;;;;;;;;;;;
2021/07/05 03:56:50;;;;;;;2.5;1.5;;;;;;;;;;;;;
2021/07/05 03:59:15;;;;;;;4.5;1.6;;;;;;;;;;;;;
2021/07/05 04:02:31;;;;;;;3.2;1.7;;;;;;;13.41;93.8916;936.4317;;;;
2021/07/05 04:04:56;;;;;;;1.8;1.3;;;;;;;13.4;93.87793;936.5453;;;;
2021/07/05 04:07:24;;;;;;;3.5;1.8;;;;;;;13.5;94.0127;936.5564;;;;
2021/07/05 04:09:49;;;;;;;3.3;1.4;;;;;;;13.38;93.88379;936.4742;;;;
2021/07/05 04:12:20;;;;;;;2;1.5;;;;;;;13.4;93.98145;936.5277;;;;
2021/07/05 04:14:42;;;;;;;4.2;1.5;;;;;;;13.4;94.1543;936.5101;;;;
2021/07/05 04:17:11;;;;;;;2.1;1.5;;;;;;;13.51;93.54492;936.4875;;;;
2021/07/05 04:19:37;;;;;;;3.1;1.3;;;;;;;13.57;92.64844;936.5313;;;;
2021/07/05 04:22:02;;;;;;;3.9;1.5;;;;;;;13.59;92.41113;936.5184;;;;
2021/07/05 04:24:28;;;;;;;1.5;1.2;;;;;;;13.64;92.56055;936.5;;;;
2021/07/05 04:26:53;;;;;;;3;1.1;;;;;;;13.54;92.22852;936.6091;;;;
2021/07/05 04:29:32;;;;;;;2.2;1.3;;;;;;;13.53;92.66504;936.5898;;;;
2021/07/05 04:31:43;;;;;;;1.7;1.5;;;;;;;13.63;92.48926;936.4769;;;;
2021/07/05 04:34:11;;;;;;;1.6;1.5;;;;;;;13.68;92.06152;936.5542;;;;
2021/07/05 04:36:36;;;;;;;2.1;1.5;;;;;;;13.54;93.32129;936.5193;;;;
2021/07/05 04:39:04;;;;;;;2.3;1.7;;;;;;;13.54;93.18262;936.4706;;;;
2021/07/05 04:41:29;;;;;;;1.3;1.2;;;;;;;13.61;92.68066;936.4127;;;;
2021/07/05 04:43:55;;;;;;;1.6;1.2;;;;;;;13.55;92.73633;936.405;;;;
2021/07/05 04:46:21;;;;;;;1.5;1.1;;;;;;;13.36;94.22461;936.4288;;;;
2021/07/05 04:48:47;;;;;;;2.9;1.5;;;;;;;13.45;93.40527;936.3918;;;;
2021/07/05 04:51:13;;;;;;;3.5;1.5;;;;;;;13.36;93.24805;936.3696;;;;
2021/07/05 04:53:39;;;;;;;1.3;1.2;;;;;;;13.28;92.99121;936.4011;;;;
2021/07/05 04:56:05;;;;;;;2;1.1;;;;;;;13.34;93.20898;936.4615;;;;
2021/07/05 04:58:31;;;;;;;3.2;1.3;;;;;;;13.4;93.13086;936.4381;;;;
2021/07/05 05:00:57;;;;;;;1.7;1.3;;;;;;;13.31;93.22461;936.3658;;;;
2021/07/05 05:03:23;;;;;;;3.1;1.4;;;;;;;13.31;93.78906;936.3002;;;;
2021/07/05 05:05:48;;;;;;;2.8;1.2;;;;;;;13.29;94.11719;936.25;;;;
2021/07/05 05:08:14;;;;;;;2.7;1.4;;;;;;;13.85;95.2041;936.2718;;;;
2021/07/05 05:10:39;;;;;;;1.7;0.9;;;;;;;15.48;86.68066;936.2316;;;;
2021/07/05 05:13:06;;;;;;;1.9;0.9;;;;;;;16.27;79.94141;936.1777;;;;
2021/07/05 05:15:37;;;;;;;1.8;1.2;;;;;;;16.82;78.26953;936.1913;;;;
2021/07/05 05:18:06;;;;;;;0.8;0.8;;;;;;;17.99;72.71875;936.205;;;;
2021/07/05 05:20:31;;;;;;;2.3;1.1;;;;;;;18.08;71.97852;936.2136;;;;
2021/07/05 05:22:56;;;;;;;1.6;0.7;;;;;;;18.3;70.08398;936.0661;;;;
2021/07/05 05:25:21;;;;;;;1.8;0.9;;;;;;;19.71;65.5625;936.1187;;;;
2021/07/05 05:27:51;;;;;;;2.1;1.1;;;;;;;19.62;65.6543;936.0379;;;;
2021/07/05 05:30:16;;;;;;;3.1;1;;;;;;;19.55;65.54004;935.9469;;;;
2021/07/05 05:32:42;;;;;;;3.2;1;;;;;;;19.64;65.9834;935.9891;;;;
2021/07/05 05:35:08;;;;;;;4.7;1.3;;;;;;;19.4;67.46289;935.9305;;;;
2021/07/05 05:37:38;;;;;;;1.7;0.9;;;;;;;19.17;69.52344;935.8727;;;;
2021/07/05 05:40:09;;;;;;;2.9;1.1;;;;;;;18.65;69.50195;935.8859;;;;
2021/07/05 05:42:34;;;;;;;1.8;0.7;;;;;;;19.49;66.45117;935.8619;;;;
2021/07/05 05:44:59;;;;;;;3.9;1.2;;;;;;;19.75;66.87598;935.8549;;;;
2021/07/05 05:47:24;;;;;;;2.9;1;;;;;;;20.18;68.13184;935.8003;;;;
2021/07/05 05:49:52;;;;;;;1.2;0.8;;;;;;;17.91;70.13965;935.758;;;;
2021/07/05 05:52:17;;;;;;;2.2;1.5;;;;;;;17.01;75.25684;935.8089;;;;
2021/07/05 05:54:45;;;;;;;1.1;0.8;;;;;;;17.46;74.13867;935.7734;;;;
2021/07/05 05:57:25;;;;;;;1.5;1;;;;;;;18.15;73.55664;935.8616;;;;
2021/07/05 05:59:38;;;;;;;1.8;1;;;;;;;18.51;72.52441;935.918;;;;
2021/07/05 06:02:03;;;;;;;1.1;1;;;;;;;18.75;72.73926;935.8937;;;;
2021/07/05 06:04:29;;;;;;;5.2;1.2;;;;;;;19.56;67.54492;935.7867;;;;
2021/07/05 06:06:54;;;;;;;1.9;1.1;;;;;;;19.75;65.1377;935.7564;;;;
2021/07/05 06:09:22;;;;;;;0.7;0.6;;;;;;;18.4;68.03223;935.7872;;;;
2021/07/05 06:11:47;;;;;;;2.3;0.7;;;;;;;19.85;63.04199;935.7811;;;;
2021/07/05 06:14:15;;;;;;;1.1;0.7;;;;;;;20.33;61.62695;935.6981;;;;
2021/07/05 06:16:45;;;;;;;10.9;1.7;;;;;;;20.65;61.58887;935.7775;;;;
2021/07/05 06:19:10;;;;;;;3.7;0.9;;;;;;;20.24;64.31152;935.7688;;;;
2021/07/05 06:21:35;;;;;;;3.6;1.1;;;;;;;19.89;62.27734;935.7347;;;;
2021/07/05 06:24:03;;;;;;;4.1;1;;;;;;;20.56;61.39063;935.7856;;;;
2021/07/05 06:26:29;;;;;;;1.7;0.8;;;;;;;21.01;59.40527;935.8474;;;;
2021/07/05 06:28:56;;;;;;;2.6;0.7;;;;;;;20.24;63.1084;935.8286;;;;
2021/07/05 06:31:21;;;;;;;5.3;1.2;;;;;;;20.98;61.60059;935.7561;;;;
2021/07/05 06:33:49;;;;;;;0.7;0.5;;;;;;;24.36;52.10352;935.8228;;;;
2021/07/05 06:36:14;;;;;;;7.5;1.3;;;;;;;26.19;46.92188;935.7819;;;;
2021/07/05 06:38:40;;;;;;;1.2;0.9;;;;;;;24.87;48.71777;935.8161;;;;
2021/07/05 06:41:05;;;;;;;1.8;0.6;;;;;;;25.97;48.1748;935.8003;;;;
2021/07/05 06:43:35;;;;;;;2.6;0.6;;;;;;;27.17;44.35547;935.7132;;;;
2021/07/05 06:46:00;;;;;;;1.1;0.5;;;;;;;27.08;47.32227;935.6836;;;;
2021/07/05 06:48:27;;;;;;;2.3;0.7;;;;;;;26.61;44.51367;935.7216;;;;
2021/07/05 06:50:52;;;;;;;0.5;0.5;;;;;;;24.12;48.68262;935.6733;;;;
2021/07/05 06:53:18;;;;;;;0.9;0.7;;;;;;;21.58;56.67285;935.6164;;;;
2021/07/05 06:55:43;;;;;;;1.9;0.7;;;;;;;20.6;60.97559;935.5836;;;;
2021/07/05 06:58:14;;;;;;;4.4;0.9;;;;;;;20.69;61.13965;935.5471;;;;
2021/07/05 07:00:39;;;;;;;2.8;0.8;;;;;;;20.82;61.76563;935.5435;;;;
2021/07/05 07:03:06;;;;;;;0.8;0.7;;;;;;;20.45;65.15918;935.5256;;;;
2021/07/05 07:05:34;;;;;;;1.2;0.6;;;;;;;20.02;63.16992;935.4672;;;;
2021/07/05 07:07:57;;;;;;;4.9;1.1;;;;;;;21.77;59.77734;935.535;;;;
2021/07/05 07:10:24;;;;;;;1.2;0.7;;;;;;;21.99;59.45605;935.6348;;;;
2021/07/05 07:12:49;;;;;;;6.1;1.1;;;;;;;21.43;60.61035;935.7014;;;;
2021/07/05 07:15:16;;;;;;;0.7;0.7;;;;;;;20.2;64.78418;935.7292;;;;
2021/07/05 07:17:45;;;;;;;1.8;0.7;;;;;;;20.31;63.76172;935.7326;;;;
2021/07/05 07:20:06;;;;;;;1.7;0.6;;;;;;;20.45;64.13086;935.7166;;;;
2021/07/05 07:22:31;;;;;;;3;1.1;;;;;;;20.45;66.26855;935.7562;;;;
2021/07/05 07:24:56;;;;;;;1.8;0.8;;;;;;;19.33;66.88086;935.7805;;;;
2021/07/05 07:27:24;;;;;;;2;0.8;;;;;;;18.54;70.5752;935.7244;;;;
2021/07/05 07:29:49;;;;;;;1.3;0.7;;;;;;;18.99;70.83398;935.7635;;;;
2021/07/05 07:32:17;;;;;;;3.1;1.1;;;;;;;19.02;67.74121;935.7338;;;;
2021/07/05 07:34:42;;;;;;;3.2;1;;;;;;;19.14;68.72754;935.699;;;;
2021/07/05 07:37:08;;;;;;;0.8;0.8;;;;;;;19.81;69.01855;935.601;;;;
2021/07/05 07:39:35;;;;;;;10.8;2;;;;;;;20.55;69.19238;935.5611;;;;
2021/07/05 07:41:57;;;;;;;1.6;0.8;;;;;;;21.01;62.44531;935.5137;;;;
2021/07/05 07:44:24;;;;;;;2.4;1;;;;;;;20.73;62.66406;935.5003;;;;
2021/07/05 07:46:49;;;;;;;2.3;0.5;;;;;;;20.55;61.1084;935.6155;;;;
2021/07/05 07:49:15;;;;;;;3.4;1.1;;;;;;;21.32;59.47168;935.5552;;;;
2021/07/05 07:51:40;;;;;;;2.4;1;;;;;;;21.61;57.99902;935.443;;;;
2021/07/05 07:54:06;;;;;;;3.2;2;;;;;;;22.98;55.61914;935.377;;;;
2021/07/05 07:56:31;;;;;;;2.8;1;;;;;;;23.62;54.5332;935.4232;;;;
2021/07/05 07:59:01;;;;;;;1.6;0.9;;;;;;;22.8;53.05859;935.3569;;;;
2021/07/05 08:01:27;;;;;;;2;0.8;;;;;;;22.94;52.91211;935.3301;;;;
2021/07/05 08:03:50;;;;;;;0.7;0.7;;;;;;;24.49;51.03418;935.3025;;;;
2021/07/05 08:06:16;;;;;;;1;0.9;;;;;;;25.77;48.95703;935.2119;;;;
2021/07/05 08:08:41;;;;;;;0.5;0.5;;;;;;;26.71;46.73828;935.2389;;;;
2021/07/05 08:11:09;;;;;;;1.6;0.6;;;;;;;27.87;42.58496;935.2519;;;;
2021/07/05 08:13:34;;;;;;;4.6;0.7;;;;;;;28.64;42.26563;935.171;;;;
2021/07/05 08:16:01;;;;;;;0.5;0.5;;;;;;;29.47;40.22168;935.2292;;;;
2021/07/05 08:18:26;;;;;;;0.6;0.5;;;;;;;29.65;37.60254;935.1877;;;;
2021/07/05 08:20:53;;;;;;;0.5;0.4;;;;;;;29.59;37.93066;935.2582;;;;
2021/07/05 08:23:19;;;;;;;0.8;0.5;;;;;;;28.65;42.0752;935.2375;;;;
2021/07/05 08:25:48;;;;;;;0.9;0.5;;;;;;;27.97;41.7627;935.1937;;;;
2021/07/05 08:28:17;;;;;;;1.1;0.5;;;;;;;28.55;40.72266;935.2075;;;;
2021/07/05 08:30:43;;;;;;;2.3;0.6;;;;;;;28.52;38.84082;935.1713;;;;
2021/07/05 08:33:11;;;;;;;0.3;0.3;;;;;;;28.32;40.76074;935.127;;;;
2021/07/05 08:35:36;;;;;;;0.4;0.4;;;;;;;27.52;42.31445;935.1192;;;;
2021/07/05 08:38:01;;;;;;;0.9;0.5;;;;;;;26.96;44.95117;935.1652;;;;
2021/07/05 08:40:27;;;;;;;0.8;0.5;;;;;;;27.02;48.05078;935.1579;;;;
2021/07/05 08:42:52;;;;;;;1.1;0.8;;;;;;;27.25;46.99609;935.188;;;;
2021/07/05 08:45:17;;;;;;;1.2;0.6;;;;;;;26.5;44.74023;935.1853;;;;
2021/07/05 08:47:44;;;;;;;0.6;0.6;;;;;;;25.59;47.35547;935.1211;;;;
2021/07/05 08:54:00;;;;;;;1;0.6;;;;;;;26.41;44.73047;934.9919;;;;
2021/07/05 08:56:26;;;;;;;2.7;0.7;;;;;;;26.9;44.85059;934.9252;;;;
2021/07/05 08:58:52;;;;;;;1;0.6;;;;;;;25.98;47.23047;934.9524;;;;
2021/07/05 09:01:16;;;;;;;0.9;0.4;;;;;;;25.89;46.92578;934.938;;;;
2021/07/05 09:03:42;;;;;;;0.5;0.5;;;;;;;25.38;48.49023;934.8844;;;;
2021/07/05 09:06:07;;;;;;;2;0.8;;;;;;;25.52;49.17773;934.8914;;;;
2021/07/05 09:08:38;;;;;;;1.7;0.6;;;;;;;26.14;48.32324;934.8698;;;;
2021/07/05 09:11:00;;;;;;;1.1;0.9;;;;;;;26.19;46.74414;934.8072;;;;
2021/07/05 09:13:25;;;;;;;1;0.6;;;;;;;26.36;47.67285;934.8519;;;;
2021/07/05 09:16:02;;;;;;;1.6;0.8;;;;;;;26.42;47.54883;934.8339;;;;
2021/07/05 09:18:30;;;;;;;2.9;0.6;;;;;;;26.41;44.94336;934.8417;;;;
2021/07/05 09:20:57;;;;;;;2.1;0.9;;;;;;;26.1;47.21973;934.8072;;;;
2021/07/05 09:23:22;;;;;;;2.5;0.5;;;;;;;25.28;47.56934;934.8002;;;;
2021/07/05 09:25:47;;;;;;;0.7;0.7;;;;;;;25.51;48.02051;934.8058;;;;
2021/07/05 09:28:12;;;;;;;0.7;0.6;;;;;;;24.89;50.07617;934.7871;;;;
2021/07/05 09:30:37;;;;;;;1.4;0.6;;;;;;;25.27;50.36816;934.8803;;;;
2021/07/05 09:33:02;;;;;;;0.7;0.7;;;;;;;25.35;50.28125;934.8925;;;;
2021/07/05 09:35:27;;;;;;;1.3;0.6;;;;;;;24.84;49.18555;934.894;;;;
2021/07/05 09:37:54;;;;;;;0.6;0.6;;;;;;;24.91;48.47363;934.8684;;;;
2021/07/05 09:40:18;;;;;;;0.8;0.8;;;;;;;24.77;49.55664;934.8328;;;;
2021/07/05 09:42:45;;;;;;;1.3;0.7;;;;;;;24.65;52.83203;934.8094;;;;
2021/07/05 09:45:10;;;;;;;3.9;1.6;;;;;;;24.89;51.52734;934.72;;;;
2021/07/05 09:47:39;;;;;;;2.2;0.7;;;;;;;24.6;50.52637;934.798;;;;
2021/07/05 09:50:04;;;;;;;2.3;0.6;;;;;;;24.29;51.74023;934.858;;;;
2021/07/05 09:52:29;;;;;;;2.8;0.8;;;;;;;24.46;48.60254;934.8472;;;;
2021/07/05 09:54:54;;;;;;;1.1;0.4;;;;;;;24.52;48.56152;934.9005;;;;
2021/07/05 09:57:27;;;;;;;0.5;0.5;;;;;;;24.74;48.51563;934.8351;;;;
2021/07/05 09:59:50;;;;;;;1;0.6;;;;;;;24.55;49.74414;934.8237;;;;
2021/07/05 10:02:12;;;;;;;1;0.6;;;;;;;24.75;46.78223;934.9258;;;;
2021/07/05 10:04:43;;;;;;;1.2;0.6;;;;;;;24.69;47.30664;934.9286;;;;
2021/07/05 10:07:03;;;;;;;0.6;0.6;;;;;;;24.33;50.4248;934.9373;;;;
2021/07/05 10:09:28;;;;;;;1.8;0.6;;;;;;;24.4;51.24707;934.9164;;;;
2021/07/05 10:11:53;;;;;;;2;0.7;;;;;;;24.39;49.43164;934.9425;;;;
2021/07/05 10:14:20;;;;;;;0.6;0.6;;;;;;;24.53;50.625;934.9684;;;;
2021/07/05 10:16:46;;;;;;;1.9;0.9;;;;;;;24.94;49.53906;934.993;;;;
2021/07/05 10:19:15;;;;;;;0.8;0.8;;;;;;;24.74;48.86816;934.981;;;;
2021/07/05 10:21:38;;;;;;;1.6;0.8;;;;;;;24.84;50.50781;934.9172;;;;
2021/07/05 10:24:03;;;;;;;0.9;0.6;;;;;;;25.21;50.7373;934.8606;;;;
2021/07/05 10:26:28;;;;;;;0.8;0.8;;;;;;;24.83;49.28027;934.8705;;;;
2021/07/05 10:28:53;;;;;;;0.9;0.7;;;;;;;25.22;47.62305;934.8527;;;;
2021/07/05 10:31:21;;;;;;;0.9;0.6;;;;;;;25.69;46.36035;934.8248;;;;
2021/07/05 10:33:46;;;;;;;0.7;0.7;;;;;;;26.05;46.68262;934.8384;;;;
2021/07/05 10:36:13;;;;;;;0.5;0.5;;;;;;;26.26;46.92871;934.827;;;;
2021/07/05 10:38:39;;;;;;;0.5;0.5;;;;;;;26.36;49.25879;934.748;;;;
2021/07/05 10:41:03;;;;;;;0.5;0.5;;;;;;;26;49.89355;934.7294;;;;
2021/07/05 10:43:28;;;;;;;0.9;0.7;;;;;;;25.88;49.14648;934.8275;;;;
2021/07/05 10:45:59;;;;;;;1;0.7;;;;;;;26.3;47.32324;934.8422;;;;
2021/07/05 10:48:21;;;;;;;0.9;0.8;;;;;;;26.63;46.93164;934.8042;;;;
2021/07/05 10:50:50;;;;;;;1.8;0.7;;;;;;;25.75;50.11426;934.8414;;;;
2021/07/05 10:53:15;;;;;;;1.5;0.8;;;;;;;25.71;49.9209;934.813;;;;
2021/07/05 10:55:42;;;;;;;0.7;0.7;;;;;;;26.2;47.0166;934.8074;;;;
2021/07/05 10:58:08;;;;;;;0.7;0.7;;;;;;;26.6;48.74023;934.8376;;;;
2021/07/05 11:00:33;;;;;;;1.9;0.8;;;;;;;26.48;49.18945;934.8428;;;;
2021/07/05 11:02:58;;;;;;;0.7;0.7;;;;;;;26.69;50.15918;934.7731;;;;
2021/07/05 11:05:24;;;;;;;0.6;0.6;;;;;;;26.28;52.47949;934.7886;;;;
2021/07/05 11:07:55;;;;;;;1.1;0.5;;;;;;;26.3;48.17578;934.7522;;;;
2021/07/05 11:10:23;;;;;;;0.7;0.5;;;;;;;26.07;50.35156;934.6956;;;;
2021/07/05 11:12:48;;;;;;;1.5;0.8;;;;;;;26.09;49.47754;934.8064;;;;
2021/07/05 11:15:20;;;;;;;1.5;0.9;;;;;;;25.71;49.94434;934.6554;;;;
2021/07/05 11:17:47;;;;;;;1.3;0.8;;;;;;;26.08;49.17969;934.6902;;;;
2021/07/05 11:20:56;;;;;;;2.1;0.8;;;;;;;26.02;47.63672;934.6335;;;;
2021/07/05 11:23:21;;;;;;;1.7;0.8;;;;;;;25.74;51.67285;934.6912;;;;
2021/07/05 11:25:46;;;;;;;3.4;0.9;;;;;;;25.17;52.43457;934.7344;;;;
2021/07/05 11:28:15;;;;;;;1;0.9;;;;;;;25.24;49.39551;934.7693;;;;
2021/07/05 11:30:40;;;;;;;1.2;0.8;;;;;;;24.92;52.02637;934.7659;;;;
2021/07/05 11:33:05;;;;;;;2.6;1.1;;;;;;;24.59;50.7627;934.7625;;;;
2021/07/05 11:35:42;;;;;;;1.6;0.8;;;;;;;24.73;50.84863;934.7597;;;;
2021/07/05 11:38:15;;;;;;;7;1.2;;;;;;;24.57;50.20508;934.7784;;;;
2021/07/05 11:40:41;;;;;;;7.6;1.4;;;;;;;24.52;52.01563;934.7839;;;;
2021/07/05 11:43:06;;;;;;;1.2;1;;;;;;;24.34;51.58203;934.7778;;;;
2021/07/05 11:45:37;;;;;;;1.5;1;;;;;;;24.1;51.94336;934.8159;;;;
2021/07/05 11:48:02;;;;;;;1.8;1.1;;;;;;;24.03;54.9375;934.8021;;;;
2021/07/05 11:50:29;;;;;;;1.6;0.9;;;;;;;23.88;53.22363;934.8538;;;;
2021/07/05 11:52:52;;;;;;;2.7;0.8;;;;;;;23.81;54.32129;934.8365;;;;
2021/07/05 11:55:18;;;;;;;2.2;0.9;;;;;;;23.86;54.06836;934.8279;;;;
2021/07/05 11:57:43;;;;;;;1.7;0.9;;;;;;;24.03;56.18457;934.8323;;;;
2021/07/05 12:00:16;;;;;;;0.8;0.8;;;;;;;24.01;55.0166;934.8419;;;;
2021/07/05 12:02:40;;;;;;;1.9;0.8;;;;;;;23.85;53.97363;934.8926;;;;
2021/07/05 12:05:10;;;;;;;2.1;0.8;;;;;;;23.87;53.15137;934.8828;;;;
2021/07/05 12:07:35;;;;;;;0.8;0.8;;;;;;;23.82;53.02734;934.8621;;;;
2021/07/05 12:10:00;;;;;;;1;0.9;;;;;;;23.61;54.42578;934.8976;;;;
2021/07/05 12:12:26;;;;;;;1;0.7;;;;;;;23.8;53.07324;934.867;;;;
2021/07/05 12:14:51;;;;;;;1.6;1.1;;;;;;;23.71;53.06055;934.8764;;;;
2021/07/05 12:17:21;;;;;;;0.9;0.9;;;;;;;23.74;53.77246;934.8553;;;;
2021/07/05 12:19:50;;;;;;;1.4;1;;;;;;;23.68;52.34082;934.8795;;;;
2021/07/05 12:22:13;;;;;;;1.9;0.8;;;;;;;23.62;53.59375;934.9183;;;;
2021/07/05 12:24:40;;;;;;;1.6;0.9;;;;;;;23.98;55.1543;934.9077;;;;
2021/07/05 12:27:05;;;;;;;0.7;0.7;;;;;;;23.87;54.6582;934.9405;;;;
2021/07/05 12:29:37;;;;;;;1;0.9;;;;;;;23.63;55.25195;934.9232;;;;
2021/07/05 12:32:01;;;;;;;1.4;0.8;;;;;;;23.51;56.17773;934.8897;;;;
2021/07/05 12:34:26;;;;;;;3.6;1.1;;;;;;;23.86;54.31445;934.9509;;;;
2021/07/05 12:36:51;;;;;;;1.1;1;;;;;;;23.81;56.93359;934.9114;;;;
2021/07/05 12:39:18;;;;;;;2.4;1;;;;;;;23.89;56.32031;934.8405;;;;
2021/07/05 12:41:42;;;;;;;1.4;1;;;;;;;23.79;57.8252;934.7667;;;;
2021/07/05 12:44:09;;;;;;;0.7;0.7;;;;;;;24.61;52.56836;934.877;;;;
2021/07/05 12:46:34;;;;;;;1.9;0.7;;;;;;;25.07;52.03125;934.9072;;;;
2021/07/05 12:49:00;;;;;;;1.4;0.9;;;;;;;25.24;53.05469;934.8375;;;;
2021/07/05 12:51:25;;;;;;;1;0.9;;;;;;;24.85;52.75;934.8661;;;;
2021/07/05 12:53:51;;;;;;;1.7;0.9;;;;;;;25.11;50.76074;934.866;;;;
2021/07/05 12:56:21;;;;;;;0.9;0.7;;;;;;;24.9;52.37793;934.9558;;;;
2021/07/05 12:58:42;;;;;;;1.2;0.8;;;;;;;24.83;52.05176;934.9861;;;;
2021/07/05 13:01:10;;;;;;;1.3;0.8;;;;;;;24.97;53.21191;935.0793;;;;
2021/07/05 13:03:37;;;;;;;2.3;0.8;;;;;;;25.04;51.5332;935.1015;;;;
2021/07/05 13:06:04;;;;;;;2.5;1;;;;;;;24.84;52.38281;935.0374;;;;
2021/07/05 13:08:28;;;;;;;1.9;0.9;;;;;;;24.15;54.0332;935.0927;;;;
2021/07/05 13:10:57;;;;;;;1.1;1;;;;;;;23.55;55.55957;935.1507;;;;
2021/07/05 13:13:24;;;;;;;1;0.9;;;;;;;23.48;55.75;935.1985;;;;
2021/07/05 13:15:52;;;;;;;1;0.9;;;;;;;23.46;56.43164;935.1918;;;;
2021/07/05 13:23:40;;;;;;;2.9;0.9;;;;;;;22.54;58.2041;935.2017;;;;
2021/07/05 13:26:07;;;;;;;3.3;0.9;;;;;;;23.15;58.10645;935.1394;;;;
2021/07/05 13:28:34;;;;;;;1.3;0.9;;;;;;;23.1;56.95996;935.2344;;;;
2021/07/05 13:31:04;;;;;;;2.1;1.2;;;;;;;23.24;57.64844;935.1845;;;;
2021/07/05 13:33:31;;;;;;;1.1;1;;;;;;;23.35;57.40332;935.2072;;;;
2021/07/05 13:35:56;;;;;;;1.8;1.2;;;;;;;22.91;59.95508;935.2486;;;;
2021/07/05 13:38:26;;;;;;;0.9;0.9;;;;;;;22.92;57.30176;935.2026;;;;
2021/07/05 13:40:49;;;;;;;1;0.9;;;;;;;22.87;57.88379;935.1617;;;;
2021/07/05 13:43:33;;;;;;;0.9;0.9;;;;;;;23.03;57.17578;935.2307;;;;
2021/07/05 13:46:01;;;;;;;1.3;1;;;;;;;22.5;60.13477;935.2495;;;;
2021/07/05 13:48:26;;;;;;;2.1;1.1;;;;;;;22.4;59.89746;935.3125;;;;
2021/07/05 13:51:11;;;;;;;1.2;0.9;;;;;;;22.33;61.01367;935.3214;;;;
2021/07/05 13:53:36;;;;;;;0.9;0.8;;;;;;;22.24;61.97559;935.3279;;;;
2021/07/05 13:56:01;;;;;;;1.8;1;;;;;;;22.32;60.99023;935.2786;;;;
2021/07/05 13:58:26;;;;;;;1.3;0.9;;;;;;;22.7;58.5293;935.3002;;;;
2021/07/05 14:04:15;;;;;;;1.3;0.9;;;;;;;22.98;58.35449;935.3058;;;;
2021/07/05 14:06:40;;;;;;;2.3;0.9;;;;;;;23.32;56.83594;935.3555;;;;
2021/07/05 14:09:07;;;;;;;1.7;1;;;;;;;23.4;57.79785;935.3748;;;;
2021/07/05 14:11:32;;;;;;;1.9;1.1;;;;;;;23.58;57.9502;935.4016;;;;
2021/07/05 14:13:58;;;;;;;0.9;0.9;;;;;;;23.15;59.65625;935.3297;;;;
2021/07/05 14:16:32;;;;;;;1;0.9;;;;;;;23.29;58.5957;935.3789;;;;
2021/07/05 14:18:58;;;;;;;1.8;1;;;;;;;23.16;55.91016;935.4283;;;;
2021/07/05 14:21:23;;;;;;;0.9;0.9;;;;;;;23.2;56.9375;935.3778;;;;
2021/07/05 14:23:50;;;;;;;1;0.9;;;;;;;23.25;57.32031;935.4091;;;;
2021/07/05 14:26:18;;;;;;;1.2;1.1;;;;;;;23.21;58.62109;935.3486;;;;
2021/07/05 14:28:43;;;;;;;2.4;1.1;;;;;;;23.49;58.03516;935.3708;;;;
2021/07/05 14:31:09;;;;;;;1.4;1;;;;;;;23.71;57.9209;935.3103;;;;
2021/07/05 14:33:34;;;;;;;1;1;;;;;;;23.69;57.15234;935.3066;;;;
2021/07/05 14:36:00;;;;;;;2.2;1;;;;;;;23.7;58.4375;935.2734;;;;
2021/07/05 14:38:33;;;;;;;1.4;1.2;;;;;;;23.87;58.8252;935.2595;;;;
2021/07/05 14:40:59;;;;;;;1;1;;;;;;;23.9;57.16992;935.2148;;;;
2021/07/05 14:43:24;;;;;;;1;0.9;;;;;;;23.98;57.56738;935.2031;;;;
2021/07/05 14:45:53;;;;;;;2.4;1.1;;;;;;;24.06;56.24805;935.1418;;;;
2021/07/05 14:48:21;;;;;;;2.4;0.8;;;;;;;23.9;55.59277;935.205;;;;
2021/07/05 14:50:46;;;;;;;1.2;1.1;;;;;;;23.75;55.58398;935.2762;;;;
2021/07/05 14:53:15;;;;;;;3.3;1.1;;;;;;;23.73;56.57031;935.2469;;;;
2021/07/05 14:55:40;;;;;;;2.4;1.1;;;;;;;23.74;55.23047;935.183;;;;
2021/07/05 14:58:08;;;;;;;1.4;1.1;;;;;;;23.38;54.52734;935.2172;;;;
2021/07/05 15:00:32;;;;;;;1.1;1;;;;;;;23.43;55.05078;935.1682;;;;
2021/07/05 15:03:01;;;;;;;1.6;1.1;;;;;;;23.68;55.75293;935.1905;;;;
2021/07/05 15:05:25;;;;;;;1.7;1;;;;;;;23.62;56.14551;935.1433;;;;
2021/07/05 15:07:55;;;;;;;4.7;1.3;;;;;;;23.5;56.11816;935.1099;;;;
2021/07/05 15:10:20;;;;;;;1.8;1.1;;;;;;;23.7;56.08398;935.1453;;;;
2021/07/05 15:12:47;;;;;;;1.1;1;;;;;;;23.76;55.7041;935.0706;;;;
2021/07/05 15:15:13;;;;;;;1.4;1.2;;;;;;;23.57;57.8916;935.0854;;;;
2021/07/05 15:17:39;;;;;;;2.8;1.1;;;;;;;23.59;56.08398;935.0911;;;;
2021/07/05 15:20:04;;;;;;;1.2;1;;;;;;;23.73;55.80664;935.1296;;;;
2021/07/05 15:22:30;;;;;;;1.3;0.9;;;;;;;23.63;56.79395;935.0944;;;;
2021/07/05 15:24:55;;;;;;;1;1;;;;;;;23.63;57.99316;935.079;;;;
2021/07/05 15:27:23;;;;;;;0.9;0.9;;;;;;;23.26;59.0498;935.0634;;;;
2021/07/05 15:29:48;;;;;;;1.5;1.2;;;;;;;23.54;58.92285;935.085;;;;
2021/07/05 15:32:18;;;;;;;1.1;1;;;;;;;23.56;56.93652;935.0868;;;;
2021/07/05 15:34:47;;;;;;;1.4;1;;;;;;;23.77;57.47168;935.0952;;;;
2021/07/05 15:37:12;;;;;;;1.2;1.1;;;;;;;23.73;55.45215;935.0151;;;;
2021/07/05 15:39:38;;;;;;;1.4;1;;;;;;;23.93;54.71289;935.0416;;;;
2021/07/05 15:42:03;;;;;;;1.1;0.7;;;;;;;23.93;55.83105;935.0433;;;;
2021/07/05 15:44:28;;;;;;;1.8;1;;;;;;;23.84;57.56055;935.0064;;;;
2021/07/05 15:46:54;;;;;;;1.2;0.9;;;;;;;23.67;55.42188;935.0723;;;;
2021/07/05 15:49:19;;;;;;;2;1;;;;;;;23.6;55.00195;935.0934;;;;
2021/07/05 15:51:46;;;;;;;1.2;0.9;;;;;;;23.7;55.03711;935.1141;;;;